sensor_id;sensor_type;location;lat;lon;timestamp;temperature;humidity
5932;DHT22;2991;49.368;8.528;2022-08-19T00:00:21;27.40;91.50
5932;DHT22;2991;49.368;8.528;2022-08-19T00:02:49;27.40;91.40
5932;DHT22;2991;49.368;8.528;2022-08-19T00:05:16;27.40;91.30
5932;DHT22;2991;49.368;8.528;2022-08-19T00:07:43;27.40;91.30
5932;DHT22;2991;49.368;8.528;2022-08-19T00:10:10;27.50;91.30
5932;DHT22;2991;49.368;8.528;2022-08-19T00:12:36;27.50;91.20
5932;DHT22;2991;49.368;8.528;2022-08-19T00:15:07;27.50;91.10
5932;DHT22;2991;49.368;8.528;2022-08-19T00:17:37;27.50;91.10
5932;DHT22;2991;49.368;8.528;2022-08-19T00:20:03;27.50;91.10
5932;DHT22;2991;49.368;8.528;2022-08-19T00:22:29;27.50;91.10
5932;DHT22;2991;49.368;8.528;2022-08-19T00:24:54;27.50;91.10
5932;DHT22;2991;49.368;8.528;2022-08-19T00:27:20;27.50;91.10
5932;DHT22;2991;49.368;8.528;2022-08-19T00:29:45;27.50;91.20
5932;DHT22;2991;49.368;8.528;2022-08-19T00:32:11;27.40;91.30
5932;DHT22;2991;49.368;8.528;2022-08-19T00:34:37;27.40;91.40
5932;DHT22;2991;49.368;8.528;2022-08-19T00:37:03;27.40;91.50
5932;DHT22;2991;49.368;8.528;2022-08-19T00:39:28;27.30;91.50
5932;DHT22;2991;49.368;8.528;2022-08-19T00:41:54;27.30;91.50
5932;DHT22;2991;49.368;8.528;2022-08-19T00:44:28;27.40;91.40
5932;DHT22;2991;49.368;8.528;2022-08-19T00:46:56;27.40;91.30
5932;DHT22;2991;49.368;8.528;2022-08-19T00:49:37;27.40;91.30
5932;DHT22;2991;49.368;8.528;2022-08-19T00:52:07;27.50;91.20
5932;DHT22;2991;49.368;8.528;2022-08-19T00:54:33;27.50;91.20
5932;DHT22;2991;49.368;8.528;2022-08-19T00:57:06;27.50;91.20
5932;DHT22;2991;49.368;8.528;2022-08-19T00:59:35;27.50;91.10
5932;DHT22;2991;49.368;8.528;2022-08-19T01:02:02;27.50;91.10
5932;DHT22;2991;49.368;8.528;2022-08-19T01:04:27;27.50;91.10
5932;DHT22;2991;49.368;8.528;2022-08-19T01:06:53;27.50;91.10
5932;DHT22;2991;49.368;8.528;2022-08-19T01:09:18;27.50;91.10
5932;DHT22;2991;49.368;8.528;2022-08-19T01:11:44;27.40;91.20
5932;DHT22;2991;49.368;8.528;2022-08-19T01:14:11;27.40;91.30
5932;DHT22;2991;49.368;8.528;2022-08-19T01:16:39;27.30;91.40
5932;DHT22;2991;49.368;8.528;2022-08-19T01:19:12;27.30;91.50
5932;DHT22;2991;49.368;8.528;2022-08-19T01:21:58;27.30;91.60
5932;DHT22;2991;49.368;8.528;2022-08-19T01:24:25;27.20;91.50
5932;DHT22;2991;49.368;8.528;2022-08-19T01:26:51;27.30;91.40
5932;DHT22;2991;49.368;8.528;2022-08-19T01:29:16;27.30;91.30
5932;DHT22;2991;49.368;8.528;2022-08-19T01:31:42;27.40;91.30
5932;DHT22;2991;49.368;8.528;2022-08-19T01:34:08;27.40;91.20
5932;DHT22;2991;49.368;8.528;2022-08-19T01:36:39;27.40;91.20
5932;DHT22;2991;49.368;8.528;2022-08-19T01:39:11;27.40;91.20
5932;DHT22;2991;49.368;8.528;2022-08-19T01:41:37;27.40;91.10
5932;DHT22;2991;49.368;8.528;2022-08-19T01:44:06;27.40;91.10
5932;DHT22;2991;49.368;8.528;2022-08-19T01:46:32;27.40;91.10
5932;DHT22;2991;49.368;8.528;2022-08-19T01:48:58;27.40;91.10
5932;DHT22;2991;49.368;8.528;2022-08-19T01:51:24;27.40;91.20
5932;DHT22;2991;49.368;8.528;2022-08-19T01:53:50;27.30;91.20
5932;DHT22;2991;49.368;8.528;2022-08-19T01:56:17;27.30;91.30
5932;DHT22;2991;49.368;8.528;2022-08-19T01:58:49;27.30;91.50
5932;DHT22;2991;49.368;8.528;2022-08-19T02:01:16;27.20;91.50
5932;DHT22;2991;49.368;8.528;2022-08-19T02:03:43;27.20;91.50
5932;DHT22;2991;49.368;8.528;2022-08-19T02:06:08;27.30;91.50
5932;DHT22;2991;49.368;8.528;2022-08-19T02:08:37;27.20;91.40
5932;DHT22;2991;49.368;8.528;2022-08-19T02:11:03;27.30;91.30
5932;DHT22;2991;49.368;8.528;2022-08-19T02:13:29;27.30;91.20
5932;DHT22;2991;49.368;8.528;2022-08-19T02:15:54;27.40;91.20
5932;DHT22;2991;49.368;8.528;2022-08-19T02:18:20;27.40;91.50
5932;DHT22;2991;49.368;8.528;2022-08-19T02:20:45;27.40;91.20
5932;DHT22;2991;49.368;8.528;2022-08-19T02:23:14;27.40;91.10
5932;DHT22;2991;49.368;8.528;2022-08-19T02:25:40;27.40;91.10
5932;DHT22;2991;49.368;8.528;2022-08-19T02:28:06;27.40;91.10
5932;DHT22;2991;49.368;8.528;2022-08-19T02:30:32;27.40;91.10
5932;DHT22;2991;49.368;8.528;2022-08-19T02:32:58;27.30;91.20
5932;DHT22;2991;49.368;8.528;2022-08-19T02:35:23;27.30;91.30
5932;DHT22;2991;49.368;8.528;2022-08-19T02:37:49;27.20;91.40
5932;DHT22;2991;49.368;8.528;2022-08-19T02:40:34;27.20;91.50
5932;DHT22;2991;49.368;8.528;2022-08-19T02:43:01;27.20;91.60
5932;DHT22;2991;49.368;8.528;2022-08-19T02:45:31;27.20;91.50
5932;DHT22;2991;49.368;8.528;2022-08-19T02:47:56;27.20;91.40
5932;DHT22;2991;49.368;8.528;2022-08-19T02:50:22;27.20;91.30
5932;DHT22;2991;49.368;8.528;2022-08-19T02:52:48;27.30;91.30
5932;DHT22;2991;49.368;8.528;2022-08-19T02:55:13;27.40;91.30
5932;DHT22;2991;49.368;8.528;2022-08-19T02:57:39;27.40;91.30
5932;DHT22;2991;49.368;8.528;2022-08-19T03:00:06;27.40;91.50
5932;DHT22;2991;49.368;8.528;2022-08-19T03:02:32;27.40;91.20
5932;DHT22;2991;49.368;8.528;2022-08-19T03:04:57;27.40;91.20
5932;DHT22;2991;49.368;8.528;2022-08-19T03:07:23;27.30;91.20
5932;DHT22;2991;49.368;8.528;2022-08-19T03:09:48;27.30;91.20
5932;DHT22;2991;49.368;8.528;2022-08-19T03:12:14;27.40;91.20
5932;DHT22;2991;49.368;8.528;2022-08-19T03:14:39;27.30;91.20
5932;DHT22;2991;49.368;8.528;2022-08-19T03:17:05;27.20;91.30
5932;DHT22;2991;49.368;8.528;2022-08-19T03:19:31;27.20;91.50
5932;DHT22;2991;49.368;8.528;2022-08-19T03:21:57;27.10;91.50
5932;DHT22;2991;49.368;8.528;2022-08-19T03:24:23;27.10;91.50
5932;DHT22;2991;49.368;8.528;2022-08-19T03:26:52;27.10;91.50
5932;DHT22;2991;49.368;8.528;2022-08-19T03:29:19;27.10;91.50
5932;DHT22;2991;49.368;8.528;2022-08-19T03:31:45;27.20;91.40
5932;DHT22;2991;49.368;8.528;2022-08-19T03:34:17;27.20;91.40
5932;DHT22;2991;49.368;8.528;2022-08-19T03:36:43;27.20;91.30
5932;DHT22;2991;49.368;8.528;2022-08-19T03:39:09;27.20;91.30
5932;DHT22;2991;49.368;8.528;2022-08-19T03:41:40;27.30;91.30
5932;DHT22;2991;49.368;8.528;2022-08-19T03:44:06;27.30;91.30
5932;DHT22;2991;49.368;8.528;2022-08-19T03:46:34;27.20;91.20
5932;DHT22;2991;49.368;8.528;2022-08-19T03:49:02;27.20;91.20
5932;DHT22;2991;49.368;8.528;2022-08-19T03:51:35;27.20;91.20
5932;DHT22;2991;49.368;8.528;2022-08-19T03:54:04;27.20;91.20
5932;DHT22;2991;49.368;8.528;2022-08-19T03:56:30;27.20;91.20
5932;DHT22;2991;49.368;8.528;2022-08-19T03:58:58;27.20;91.30
5932;DHT22;2991;49.368;8.528;2022-08-19T04:01:27;27.10;91.40
5932;DHT22;2991;49.368;8.528;2022-08-19T04:03:55;27.10;91.50
5932;DHT22;2991;49.368;8.528;2022-08-19T04:06:27;27.10;91.60
5932;DHT22;2991;49.368;8.528;2022-08-19T04:08:54;27.10;91.60
5932;DHT22;2991;49.368;8.528;2022-08-19T04:11:25;27.10;91.50
5932;DHT22;2991;49.368;8.528;2022-08-19T04:13:53;27.10;91.40
5932;DHT22;2991;49.368;8.528;2022-08-19T04:16:19;27.10;91.30
5932;DHT22;2991;49.368;8.528;2022-08-19T04:18:46;27.20;91.30
5932;DHT22;2991;49.368;8.528;2022-08-19T04:21:19;27.20;91.30
5932;DHT22;2991;49.368;8.528;2022-08-19T04:23:45;27.20;91.30
5932;DHT22;2991;49.368;8.528;2022-08-19T04:26:15;27.20;91.30
5932;DHT22;2991;49.368;8.528;2022-08-19T04:28:42;27.20;91.30
5932;DHT22;2991;49.368;8.528;2022-08-19T04:31:13;27.20;91.20
5932;DHT22;2991;49.368;8.528;2022-08-19T04:33:39;27.20;91.20
5932;DHT22;2991;49.368;8.528;2022-08-19T04:36:05;27.20;91.20
5932;DHT22;2991;49.368;8.528;2022-08-19T04:38:31;27.20;91.30
5932;DHT22;2991;49.368;8.528;2022-08-19T04:40:56;27.10;91.40
5932;DHT22;2991;49.368;8.528;2022-08-19T04:43:40;27.00;91.40
5932;DHT22;2991;49.368;8.528;2022-08-19T04:46:08;27.00;91.60
5932;DHT22;2991;49.368;8.528;2022-08-19T04:48:35;27.00;91.60
5932;DHT22;2991;49.368;8.528;2022-08-19T04:51:00;27.00;91.50
5932;DHT22;2991;49.368;8.528;2022-08-19T04:53:28;27.10;91.50
5932;DHT22;2991;49.368;8.528;2022-08-19T04:55:55;27.10;91.40
5932;DHT22;2991;49.368;8.528;2022-08-19T04:58:22;27.10;91.30
5932;DHT22;2991;49.368;8.528;2022-08-19T05:00:48;27.10;91.30
5932;DHT22;2991;49.368;8.528;2022-08-19T05:03:14;27.10;91.30
5932;DHT22;2991;49.368;8.528;2022-08-19T05:05:46;27.10;91.30
5932;DHT22;2991;49.368;8.528;2022-08-19T05:08:15;27.10;91.30
5932;DHT22;2991;49.368;8.528;2022-08-19T05:10:49;27.10;91.20
5932;DHT22;2991;49.368;8.528;2022-08-19T05:13:17;27.10;91.30
5932;DHT22;2991;49.368;8.528;2022-08-19T05:15:43;27.10;91.20
5932;DHT22;2991;49.368;8.528;2022-08-19T05:18:09;27.10;91.30
5932;DHT22;2991;49.368;8.528;2022-08-19T05:20:53;27.10;91.40
5932;DHT22;2991;49.368;8.528;2022-08-19T05:23:38;27.00;91.40
5932;DHT22;2991;49.368;8.528;2022-08-19T05:26:04;27.00;91.60
5932;DHT22;2991;49.368;8.528;2022-08-19T05:28:30;27.00;91.60
5932;DHT22;2991;49.368;8.528;2022-08-19T05:30:56;27.00;91.60
5932;DHT22;2991;49.368;8.528;2022-08-19T05:33:22;27.00;91.60
5932;DHT22;2991;49.368;8.528;2022-08-19T05:35:48;27.10;91.60
5932;DHT22;2991;49.368;8.528;2022-08-19T05:38:16;27.10;91.50
5932;DHT22;2991;49.368;8.528;2022-08-19T05:40:42;27.10;91.50
5932;DHT22;2991;49.368;8.528;2022-08-19T05:43:13;27.10;91.40
5932;DHT22;2991;49.368;8.528;2022-08-19T05:45:42;27.10;91.40
5932;DHT22;2991;49.368;8.528;2022-08-19T05:48:12;27.10;91.40
5932;DHT22;2991;49.368;8.528;2022-08-19T05:50:39;27.10;91.30
5932;DHT22;2991;49.368;8.528;2022-08-19T05:53:05;27.10;91.70
5932;DHT22;2991;49.368;8.528;2022-08-19T05:55:31;27.10;91.30
5932;DHT22;2991;49.368;8.528;2022-08-19T05:57:57;27.10;91.30
5932;DHT22;2991;49.368;8.528;2022-08-19T06:00:23;27.10;91.30
5932;DHT22;2991;49.368;8.528;2022-08-19T06:02:49;27.00;91.40
5932;DHT22;2991;49.368;8.528;2022-08-19T06:05:16;27.00;91.70
5932;DHT22;2991;49.368;8.528;2022-08-19T06:07:41;27.00;91.70
5932;DHT22;2991;49.368;8.528;2022-08-19T06:10:10;27.00;91.70
5932;DHT22;2991;49.368;8.528;2022-08-19T06:12:37;27.00;91.60
5932;DHT22;2991;49.368;8.528;2022-08-19T06:15:11;27.00;91.60
5932;DHT22;2991;49.368;8.528;2022-08-19T06:17:38;27.00;91.50
5932;DHT22;2991;49.368;8.528;2022-08-19T06:20:06;27.10;91.50
5932;DHT22;2991;49.368;8.528;2022-08-19T06:22:44;27.10;91.40
5932;DHT22;2991;49.368;8.528;2022-08-19T06:25:10;27.10;91.40
5932;DHT22;2991;49.368;8.528;2022-08-19T06:27:37;27.10;91.40
5932;DHT22;2991;49.368;8.528;2022-08-19T06:30:06;27.10;91.40
5932;DHT22;2991;49.368;8.528;2022-08-19T06:32:32;27.10;91.30
5932;DHT22;2991;49.368;8.528;2022-08-19T06:34:58;27.10;91.30
5932;DHT22;2991;49.368;8.528;2022-08-19T06:37:24;27.10;91.40
5932;DHT22;2991;49.368;8.528;2022-08-19T06:39:49;27.10;91.30
5932;DHT22;2991;49.368;8.528;2022-08-19T06:42:15;27.00;91.40
5932;DHT22;2991;49.368;8.528;2022-08-19T06:44:45;27.00;91.60
5932;DHT22;2991;49.368;8.528;2022-08-19T06:47:17;27.00;91.70
5932;DHT22;2991;49.368;8.528;2022-08-19T06:49:43;27.00;91.70
5932;DHT22;2991;49.368;8.528;2022-08-19T06:52:09;27.00;91.70
5932;DHT22;2991;49.368;8.528;2022-08-19T06:54:37;27.00;91.60
5932;DHT22;2991;49.368;8.528;2022-08-19T06:57:04;27.00;91.60
5932;DHT22;2991;49.368;8.528;2022-08-19T06:59:31;27.00;91.50
5932;DHT22;2991;49.368;8.528;2022-08-19T07:02:00;27.10;91.50
5932;DHT22;2991;49.368;8.528;2022-08-19T07:04:28;27.10;91.40
5932;DHT22;2991;49.368;8.528;2022-08-19T07:07:05;27.10;91.50
5932;DHT22;2991;49.368;8.528;2022-08-19T07:09:33;27.10;91.40
5932;DHT22;2991;49.368;8.528;2022-08-19T07:11:59;27.10;91.40
5932;DHT22;2991;49.368;8.528;2022-08-19T07:14:27;27.10;91.40
5932;DHT22;2991;49.368;8.528;2022-08-19T07:16:55;27.10;91.50
5932;DHT22;2991;49.368;8.528;2022-08-19T07:19:22;27.10;91.50
5932;DHT22;2991;49.368;8.528;2022-08-19T07:21:50;27.10;91.50
5932;DHT22;2991;49.368;8.528;2022-08-19T07:24:19;27.00;91.60
5932;DHT22;2991;49.368;8.528;2022-08-19T07:26:45;27.00;91.70
5932;DHT22;2991;49.368;8.528;2022-08-19T07:29:11;27.00;91.80
5932;DHT22;2991;49.368;8.528;2022-08-19T07:31:37;27.00;91.80
5932;DHT22;2991;49.368;8.528;2022-08-19T07:34:05;27.00;91.80
5932;DHT22;2991;49.368;8.528;2022-08-19T07:36:36;27.00;91.70
5932;DHT22;2991;49.368;8.528;2022-08-19T07:39:06;27.00;91.60
5932;DHT22;2991;49.368;8.528;2022-08-19T07:41:32;27.10;91.60
5932;DHT22;2991;49.368;8.528;2022-08-19T07:43:59;27.10;91.60
5932;DHT22;2991;49.368;8.528;2022-08-19T07:46:31;27.10;91.50
5932;DHT22;2991;49.368;8.528;2022-08-19T07:48:56;27.10;91.50
5932;DHT22;2991;49.368;8.528;2022-08-19T07:51:23;27.10;91.40
5932;DHT22;2991;49.368;8.528;2022-08-19T07:53:49;27.10;91.50
5932;DHT22;2991;49.368;8.528;2022-08-19T07:56:16;27.10;91.40
5932;DHT22;2991;49.368;8.528;2022-08-19T07:58:45;27.10;91.50
5932;DHT22;2991;49.368;8.528;2022-08-19T08:01:14;27.10;91.40
5932;DHT22;2991;49.368;8.528;2022-08-19T08:03:41;27.10;91.50
5932;DHT22;2991;49.368;8.528;2022-08-19T08:06:25;27.00;91.70
5932;DHT22;2991;49.368;8.528;2022-08-19T08:09:10;27.00;91.70
5932;DHT22;2991;49.368;8.528;2022-08-19T08:11:40;27.10;91.70
5932;DHT22;2991;49.368;8.528;2022-08-19T08:14:07;27.10;91.70
5932;DHT22;2991;49.368;8.528;2022-08-19T08:16:36;27.10;91.60
5932;DHT22;2991;49.368;8.528;2022-08-19T08:19:03;27.20;91.50
5932;DHT22;2991;49.368;8.528;2022-08-19T08:21:28;27.30;91.40
5932;DHT22;2991;49.368;8.528;2022-08-19T08:23:54;27.40;91.40
5932;DHT22;2991;49.368;8.528;2022-08-19T08:26:20;27.40;91.40
5932;DHT22;2991;49.368;8.528;2022-08-19T08:28:46;27.40;91.30
5932;DHT22;2991;49.368;8.528;2022-08-19T08:31:12;27.50;91.40
5932;DHT22;2991;49.368;8.528;2022-08-19T08:33:38;27.60;91.30
5932;DHT22;2991;49.368;8.528;2022-08-19T08:36:07;27.70;91.30
5932;DHT22;2991;49.368;8.528;2022-08-19T08:38:33;27.70;91.10
5932;DHT22;2991;49.368;8.528;2022-08-19T08:43:46;27.90;91.00
5932;DHT22;2991;49.368;8.528;2022-08-19T08:46:39;27.90;90.90
5932;DHT22;2991;49.368;8.528;2022-08-19T08:51:54;28.00;90.90
5932;DHT22;2991;49.368;8.528;2022-08-19T08:54:30;28.00;90.70
5932;DHT22;2991;49.368;8.528;2022-08-19T08:56:57;28.10;90.70
5932;DHT22;2991;49.368;8.528;2022-08-19T08:59:29;28.10;90.60
5932;DHT22;2991;49.368;8.528;2022-08-19T09:01:58;28.20;90.60
5932;DHT22;2991;49.368;8.528;2022-08-19T09:04:24;28.20;90.50
5932;DHT22;2991;49.368;8.528;2022-08-19T09:09:46;28.30;90.50
5932;DHT22;2991;49.368;8.528;2022-08-19T09:12:24;28.30;90.40
5932;DHT22;2991;49.368;8.528;2022-08-19T09:15:01;28.30;90.70
5932;DHT22;2991;49.368;8.528;2022-08-19T09:17:30;28.40;90.40
5932;DHT22;2991;49.368;8.528;2022-08-19T09:22:33;28.40;90.30
5932;DHT22;2991;49.368;8.528;2022-08-19T09:24:59;28.50;90.30
5932;DHT22;2991;49.368;8.528;2022-08-19T09:27:26;28.50;90.30
5932;DHT22;2991;49.368;8.528;2022-08-19T09:29:52;28.50;90.20
5932;DHT22;2991;49.368;8.528;2022-08-19T09:32:19;28.60;90.20
5932;DHT22;2991;49.368;8.528;2022-08-19T09:34:45;28.60;90.20
5932;DHT22;2991;49.368;8.528;2022-08-19T09:37:11;28.60;90.10
5932;DHT22;2991;49.368;8.528;2022-08-19T09:39:37;28.60;90.10
5932;DHT22;2991;49.368;8.528;2022-08-19T09:42:03;28.60;90.10
5932;DHT22;2991;49.368;8.528;2022-08-19T09:44:30;28.50;90.10
5932;DHT22;2991;49.368;8.528;2022-08-19T09:46:55;28.60;90.20
5932;DHT22;2991;49.368;8.528;2022-08-19T09:49:21;28.60;90.10
5932;DHT22;2991;49.368;8.528;2022-08-19T09:51:50;28.50;90.10
5932;DHT22;2991;49.368;8.528;2022-08-19T09:54:15;28.60;90.10
5932;DHT22;2991;49.368;8.528;2022-08-19T09:56:41;28.50;90.10
5932;DHT22;2991;49.368;8.528;2022-08-19T09:59:06;28.60;90.10
5932;DHT22;2991;49.368;8.528;2022-08-19T10:01:33;28.60;90.10
5932;DHT22;2991;49.368;8.528;2022-08-19T10:04:00;28.60;90.10
5932;DHT22;2991;49.368;8.528;2022-08-19T10:06:29;28.70;90.00
5932;DHT22;2991;49.368;8.528;2022-08-19T10:08:57;28.70;90.00
5932;DHT22;2991;49.368;8.528;2022-08-19T10:11:22;28.70;90.00
5932;DHT22;2991;49.368;8.528;2022-08-19T10:13:48;28.70;90.00
5932;DHT22;2991;49.368;8.528;2022-08-19T10:16:19;28.70;90.00
5932;DHT22;2991;49.368;8.528;2022-08-19T10:18:46;28.80;90.00
5932;DHT22;2991;49.368;8.528;2022-08-19T10:21:15;28.70;89.90
5932;DHT22;2991;49.368;8.528;2022-08-19T10:23:43;28.80;90.00
5932;DHT22;2991;49.368;8.528;2022-08-19T10:26:18;28.80;89.90
5932;DHT22;2991;49.368;8.528;2022-08-19T10:28:44;28.80;89.90
5932;DHT22;2991;49.368;8.528;2022-08-19T10:31:16;28.80;89.90
5932;DHT22;2991;49.368;8.528;2022-08-19T10:33:43;28.80;89.90
5932;DHT22;2991;49.368;8.528;2022-08-19T10:36:21;28.90;89.80
5932;DHT22;2991;49.368;8.528;2022-08-19T10:38:50;28.90;89.80
5932;DHT22;2991;49.368;8.528;2022-08-19T10:41:21;28.90;89.70
5932;DHT22;2991;49.368;8.528;2022-08-19T10:43:51;28.80;89.80
5932;DHT22;2991;49.368;8.528;2022-08-19T10:46:18;28.80;89.90
5932;DHT22;2991;49.368;8.528;2022-08-19T10:48:44;28.90;90.30
5932;DHT22;2991;49.368;8.528;2022-08-19T10:51:11;28.90;89.90
5932;DHT22;2991;49.368;8.528;2022-08-19T10:53:56;28.90;89.90
5932;DHT22;2991;49.368;8.528;2022-08-19T10:56:29;29.00;89.90
5932;DHT22;2991;49.368;8.528;2022-08-19T10:59:15;29.00;89.80
5932;DHT22;2991;49.368;8.528;2022-08-19T11:01:44;29.00;89.70
5932;DHT22;2991;49.368;8.528;2022-08-19T11:04:13;29.10;89.70
5932;DHT22;2991;49.368;8.528;2022-08-19T11:06:41;29.00;89.70
5932;DHT22;2991;49.368;8.528;2022-08-19T11:09:09;29.00;90.10
5932;DHT22;2991;49.368;8.528;2022-08-19T11:11:36;29.00;90.00
5932;DHT22;2991;49.368;8.528;2022-08-19T11:14:08;28.90;90.00
5932;DHT22;2991;49.368;8.528;2022-08-19T11:16:34;28.90;90.00
5932;DHT22;2991;49.368;8.528;2022-08-19T11:19:00;28.90;90.00
5932;DHT22;2991;49.368;8.528;2022-08-19T11:21:33;28.90;90.00
5932;DHT22;2991;49.368;8.528;2022-08-19T11:24:02;29.00;90.00
5932;DHT22;2991;49.368;8.528;2022-08-19T11:26:36;29.00;90.00
5932;DHT22;2991;49.368;8.528;2022-08-19T11:29:09;29.00;89.90
5932;DHT22;2991;49.368;8.528;2022-08-19T11:31:41;29.00;89.90
5932;DHT22;2991;49.368;8.528;2022-08-19T11:34:10;29.10;90.00
5932;DHT22;2991;49.368;8.528;2022-08-19T11:36:38;29.10;89.90
5932;DHT22;2991;49.368;8.528;2022-08-19T11:39:06;29.10;89.90
5932;DHT22;2991;49.368;8.528;2022-08-19T11:41:32;29.10;89.90
5932;DHT22;2991;49.368;8.528;2022-08-19T11:43:57;29.10;89.80
5932;DHT22;2991;49.368;8.528;2022-08-19T11:46:25;29.10;89.80
5932;DHT22;2991;49.368;8.528;2022-08-19T11:48:51;29.10;89.90
5932;DHT22;2991;49.368;8.528;2022-08-19T11:51:20;29.10;89.90
5932;DHT22;2991;49.368;8.528;2022-08-19T11:53:47;29.10;89.80
5932;DHT22;2991;49.368;8.528;2022-08-19T11:56:13;29.10;89.80
5932;DHT22;2991;49.368;8.528;2022-08-19T11:58:40;29.20;89.80
5932;DHT22;2991;49.368;8.528;2022-08-19T12:01:11;29.10;89.70
5932;DHT22;2991;49.368;8.528;2022-08-19T12:03:39;29.20;89.70
5932;DHT22;2991;49.368;8.528;2022-08-19T12:06:10;29.20;89.60
5932;DHT22;2991;49.368;8.528;2022-08-19T12:08:38;29.20;89.50
5932;DHT22;2991;49.368;8.528;2022-08-19T12:11:04;29.20;89.50
5932;DHT22;2991;49.368;8.528;2022-08-19T12:13:33;29.30;89.50
5932;DHT22;2991;49.368;8.528;2022-08-19T12:15:59;29.20;89.40
5932;DHT22;2991;49.368;8.528;2022-08-19T12:18:25;29.20;89.30
5932;DHT22;2991;49.368;8.528;2022-08-19T12:20:53;29.20;89.40
5932;DHT22;2991;49.368;8.528;2022-08-19T12:23:22;29.20;89.40
5932;DHT22;2991;49.368;8.528;2022-08-19T12:25:51;29.20;89.50
5932;DHT22;2991;49.368;8.528;2022-08-19T12:28:19;29.20;89.50
5932;DHT22;2991;49.368;8.528;2022-08-19T12:30:45;29.20;89.40
5932;DHT22;2991;49.368;8.528;2022-08-19T12:33:11;29.20;89.40
5932;DHT22;2991;49.368;8.528;2022-08-19T12:35:43;29.20;89.40
5932;DHT22;2991;49.368;8.528;2022-08-19T12:38:10;29.20;89.40
5932;DHT22;2991;49.368;8.528;2022-08-19T12:40:36;29.20;89.40
5932;DHT22;2991;49.368;8.528;2022-08-19T12:43:02;29.20;89.30
5932;DHT22;2991;49.368;8.528;2022-08-19T12:45:28;29.20;89.30
5932;DHT22;2991;49.368;8.528;2022-08-19T12:47:54;29.30;89.30
5932;DHT22;2991;49.368;8.528;2022-08-19T12:50:19;29.30;89.20
5932;DHT22;2991;49.368;8.528;2022-08-19T12:52:47;29.30;89.20
5932;DHT22;2991;49.368;8.528;2022-08-19T12:55:14;29.30;89.20
5932;DHT22;2991;49.368;8.528;2022-08-19T12:57:40;29.30;89.20
5932;DHT22;2991;49.368;8.528;2022-08-19T13:02:36;29.30;89.10
5932;DHT22;2991;49.368;8.528;2022-08-19T13:05:05;29.30;89.00
5932;DHT22;2991;49.368;8.528;2022-08-19T13:07:32;29.30;89.00
5932;DHT22;2991;49.368;8.528;2022-08-19T13:09:58;29.30;88.90
5932;DHT22;2991;49.368;8.528;2022-08-19T13:12:23;29.40;88.90
5932;DHT22;2991;49.368;8.528;2022-08-19T13:14:55;29.30;88.80
5932;DHT22;2991;49.368;8.528;2022-08-19T13:17:20;29.40;88.80
5932;DHT22;2991;49.368;8.528;2022-08-19T13:19:46;29.40;88.70
5932;DHT22;2991;49.368;8.528;2022-08-19T13:22:14;29.40;88.70
5932;DHT22;2991;49.368;8.528;2022-08-19T13:24:40;29.40;88.70
5932;DHT22;2991;49.368;8.528;2022-08-19T13:27:07;29.40;88.60
5932;DHT22;2991;49.368;8.528;2022-08-19T13:29:35;29.40;88.60
5932;DHT22;2991;49.368;8.528;2022-08-19T13:32:19;29.40;88.60
5932;DHT22;2991;49.368;8.528;2022-08-19T13:35:05;29.40;88.60
5932;DHT22;2991;49.368;8.528;2022-08-19T13:37:38;29.40;88.50
5932;DHT22;2991;49.368;8.528;2022-08-19T13:42:45;29.50;88.50
5932;DHT22;2991;49.368;8.528;2022-08-19T13:45:22;29.50;88.30
5932;DHT22;2991;49.368;8.528;2022-08-19T13:47:57;29.50;88.30
5932;DHT22;2991;49.368;8.528;2022-08-19T13:50:28;29.40;88.30
5932;DHT22;2991;49.368;8.528;2022-08-19T13:52:57;29.50;87.00
5932;DHT22;2991;49.368;8.528;2022-08-19T13:55:24;29.60;82.70
5932;DHT22;2991;49.368;8.528;2022-08-19T13:57:54;29.80;81.20
5932;DHT22;2991;49.368;8.528;2022-08-19T14:00:22;30.00;80.00
5932;DHT22;2991;49.368;8.528;2022-08-19T14:02:52;30.00;78.70
5932;DHT22;2991;49.368;8.528;2022-08-19T14:05:19;30.00;78.60
5932;DHT22;2991;49.368;8.528;2022-08-19T14:07:45;30.10;78.70
5932;DHT22;2991;49.368;8.528;2022-08-19T14:10:12;30.20;78.50
5932;DHT22;2991;49.368;8.528;2022-08-19T14:12:38;30.10;77.40
5932;DHT22;2991;49.368;8.528;2022-08-19T14:15:06;30.10;77.60
5932;DHT22;2991;49.368;8.528;2022-08-19T14:17:32;30.20;77.50
5932;DHT22;2991;49.368;8.528;2022-08-19T14:20:02;30.00;77.60
5932;DHT22;2991;49.368;8.528;2022-08-19T14:22:32;30.10;77.60
5932;DHT22;2991;49.368;8.528;2022-08-19T14:24:57;30.20;77.70
5932;DHT22;2991;49.368;8.528;2022-08-19T14:27:23;30.10;77.50
5932;DHT22;2991;49.368;8.528;2022-08-19T14:29:53;30.20;77.40
5932;DHT22;2991;49.368;8.528;2022-08-19T14:32:18;30.30;77.00
5932;DHT22;2991;49.368;8.528;2022-08-19T14:34:44;30.30;76.70
5932;DHT22;2991;49.368;8.528;2022-08-19T14:37:14;30.30;76.90
5932;DHT22;2991;49.368;8.528;2022-08-19T14:39:40;30.30;76.80
5932;DHT22;2991;49.368;8.528;2022-08-19T14:42:07;30.40;77.60
5932;DHT22;2991;49.368;8.528;2022-08-19T14:44:34;30.40;77.60
5932;DHT22;2991;49.368;8.528;2022-08-19T14:46:59;30.40;76.70
5932;DHT22;2991;49.368;8.528;2022-08-19T14:49:25;30.40;76.20
5932;DHT22;2991;49.368;8.528;2022-08-19T14:51:50;30.40;76.40
5932;DHT22;2991;49.368;8.528;2022-08-19T14:54:16;30.40;76.50
5932;DHT22;2991;49.368;8.528;2022-08-19T14:56:41;30.40;76.20
5932;DHT22;2991;49.368;8.528;2022-08-19T14:59:07;30.40;75.70
5932;DHT22;2991;49.368;8.528;2022-08-19T15:01:32;30.40;76.10
5932;DHT22;2991;49.368;8.528;2022-08-19T15:03:58;30.40;76.70
5932;DHT22;2991;49.368;8.528;2022-08-19T15:08:50;30.50;76.20
5932;DHT22;2991;49.368;8.528;2022-08-19T15:11:19;30.50;76.30
5932;DHT22;2991;49.368;8.528;2022-08-19T15:13:46;30.40;75.80
5932;DHT22;2991;49.368;8.528;2022-08-19T15:16:13;30.40;75.90
5932;DHT22;2991;49.368;8.528;2022-08-19T15:18:43;30.50;75.40
5932;DHT22;2991;49.368;8.528;2022-08-19T15:21:13;30.40;75.80
5932;DHT22;2991;49.368;8.528;2022-08-19T15:23:41;30.40;75.70
5932;DHT22;2991;49.368;8.528;2022-08-19T15:26:07;30.40;76.00
5932;DHT22;2991;49.368;8.528;2022-08-19T15:28:34;30.40;75.90
5932;DHT22;2991;49.368;8.528;2022-08-19T15:30:59;30.40;75.90
5932;DHT22;2991;49.368;8.528;2022-08-19T15:33:26;30.40;75.70
5932;DHT22;2991;49.368;8.528;2022-08-19T15:35:52;30.40;75.70
5932;DHT22;2991;49.368;8.528;2022-08-19T15:38:19;30.40;76.10
5932;DHT22;2991;49.368;8.528;2022-08-19T15:40:47;30.40;76.40
5932;DHT22;2991;49.368;8.528;2022-08-19T15:43:14;30.40;76.60
5932;DHT22;2991;49.368;8.528;2022-08-19T15:45:41;30.40;75.80
5932;DHT22;2991;49.368;8.528;2022-08-19T15:48:06;30.40;76.10
5932;DHT22;2991;49.368;8.528;2022-08-19T15:50:32;30.40;75.80
5932;DHT22;2991;49.368;8.528;2022-08-19T15:53:03;30.40;76.10
5932;DHT22;2991;49.368;8.528;2022-08-19T15:55:31;30.40;76.40
5932;DHT22;2991;49.368;8.528;2022-08-19T15:57:58;30.40;76.20
5932;DHT22;2991;49.368;8.528;2022-08-19T16:00:42;30.30;76.00
5932;DHT22;2991;49.368;8.528;2022-08-19T16:03:27;30.40;76.20
5932;DHT22;2991;49.368;8.528;2022-08-19T16:06:11;30.30;75.80
5932;DHT22;2991;49.368;8.528;2022-08-19T16:08:57;30.30;76.40
5932;DHT22;2991;49.368;8.528;2022-08-19T16:11:25;30.30;76.60
5932;DHT22;2991;49.368;8.528;2022-08-19T16:13:53;30.30;76.00
5932;DHT22;2991;49.368;8.528;2022-08-19T16:16:24;30.30;77.10
5932;DHT22;2991;49.368;8.528;2022-08-19T16:18:53;30.40;76.50
5932;DHT22;2991;49.368;8.528;2022-08-19T16:21:19;30.40;76.90
5932;DHT22;2991;49.368;8.528;2022-08-19T16:23:47;30.40;76.90
5932;DHT22;2991;49.368;8.528;2022-08-19T16:26:16;30.40;76.20